sensor_id;sensor_type;location;lat;lon;timestamp;P1;durP1;ratioP1;P2;durP2;ratioP2
52494;SDS011;38405;53.212;5.660;2023-04-24T00:02:21;5.97;;;2.65;;
52494;SDS011;38405;53.212;5.660;2023-04-24T00:04:47;2.65;;;2.25;;
52494;SDS011;38405;53.212;5.660;2023-04-24T00:07:13;3.15;;;2.50;;
52494;SDS011;38405;53.212;5.660;2023-04-24T00:09:42;3.65;;;2.58;;
52494;SDS011;38405;53.212;5.660;2023-04-24T00:12:08;4.50;;;2.55;;
52494;SDS011;38405;53.212;5.660;2023-04-24T00:14:34;5.40;;;2.90;;
52494;SDS011;38405;53.212;5.660;2023-04-24T00:17:00;4.03;;;3.13;;
52494;SDS011;38405;53.212;5.660;2023-04-24T00:19:27;4.22;;;3.15;;
52494;SDS011;38405;53.212;5.660;2023-04-24T00:21:54;3.35;;;3.05;;
52494;SDS011;38405;53.212;5.660;2023-04-24T00:24:20;3.75;;;3.05;;
52494;SDS011;38405;53.212;5.660;2023-04-24T00:26:46;3.92;;;3.35;;
52494;SDS011;38405;53.212;5.660;2023-04-24T00:29:12;10.88;;;3.20;;
52494;SDS011;38405;53.212;5.660;2023-04-24T00:31:37;4.35;;;3.20;;
52494;SDS011;38405;53.212;5.660;2023-04-24T00:34:03;3.55;;;3.17;;
52494;SDS011;38405;53.212;5.660;2023-04-24T00:36:29;6.65;;;3.17;;
52494;SDS011;38405;53.212;5.660;2023-04-24T00:38:56;3.67;;;2.60;;
52494;SDS011;38405;53.212;5.660;2023-04-24T00:41:22;5.38;;;3.15;;
52494;SDS011;38405;53.212;5.660;2023-04-24T00:43:49;6.68;;;2.97;;
52494;SDS011;38405;53.212;5.660;2023-04-24T00:46:16;3.80;;;2.92;;
52494;SDS011;38405;53.212;5.660;2023-04-24T00:48:42;3.00;;;2.70;;
52494;SDS011;38405;53.212;5.660;2023-04-24T00:51:08;8.85;;;2.55;;
52494;SDS011;38405;53.212;5.660;2023-04-24T00:53:33;3.95;;;2.63;;
52494;SDS011;38405;53.212;5.660;2023-04-24T00:55:59;3.42;;;2.70;;
52494;SDS011;38405;53.212;5.660;2023-04-24T00:58:25;7.90;;;2.50;;
52494;SDS011;38405;53.212;5.660;2023-04-24T01:00:51;5.50;;;2.47;;
52494;SDS011;38405;53.212;5.660;2023-04-24T01:03:22;2.28;;;2.08;;
52494;SDS011;38405;53.212;5.660;2023-04-24T01:05:51;3.92;;;2.35;;
52494;SDS011;38405;53.212;5.660;2023-04-24T01:08:19;2.70;;;2.25;;
52494;SDS011;38405;53.212;5.660;2023-04-24T01:10:45;4.18;;;2.47;;
52494;SDS011;38405;53.212;5.660;2023-04-24T01:13:13;3.05;;;2.30;;
52494;SDS011;38405;53.212;5.660;2023-04-24T01:15:39;3.45;;;2.35;;
52494;SDS011;38405;53.212;5.660;2023-04-24T01:18:05;5.97;;;2.47;;
52494;SDS011;38405;53.212;5.660;2023-04-24T01:20:31;5.85;;;2.63;;
52494;SDS011;38405;53.212;5.660;2023-04-24T01:22:57;5.20;;;2.10;;
52494;SDS011;38405;53.212;5.660;2023-04-24T01:25:23;3.03;;;2.20;;
52494;SDS011;38405;53.212;5.660;2023-04-24T01:27:50;5.57;;;2.10;;
52494;SDS011;38405;53.212;5.660;2023-04-24T01:30:17;2.28;;;1.90;;
52494;SDS011;38405;53.212;5.660;2023-04-24T01:32:43;6.85;;;2.55;;
52494;SDS011;38405;53.212;5.660;2023-04-24T01:35:10;3.90;;;1.83;;
52494;SDS011;38405;53.212;5.660;2023-04-24T01:37:36;3.63;;;1.70;;
52494;SDS011;38405;53.212;5.660;2023-04-24T01:40:05;1.50;;;1.40;;
52494;SDS011;38405;53.212;5.660;2023-04-24T01:42:32;1.88;;;1.58;;
52494;SDS011;38405;53.212;5.660;2023-04-24T01:44:59;7.32;;;1.67;;
52494;SDS011;38405;53.212;5.660;2023-04-24T01:47:25;1.30;;;1.20;;
52494;SDS011;38405;53.212;5.660;2023-04-24T01:49:51;2.47;;;1.33;;
52494;SDS011;38405;53.212;5.660;2023-04-24T01:52:17;1.70;;;1.58;;
52494;SDS011;38405;53.212;5.660;2023-04-24T01:54:43;1.92;;;1.80;;
52494;SDS011;38405;53.212;5.660;2023-04-24T01:57:09;7.60;;;2.28;;
52494;SDS011;38405;53.212;5.660;2023-04-24T01:59:35;6.90;;;3.30;;
52494;SDS011;38405;53.212;5.660;2023-04-24T02:02:01;4.38;;;3.05;;
52494;SDS011;38405;53.212;5.660;2023-04-24T02:04:28;4.72;;;4.22;;
52494;SDS011;38405;53.212;5.660;2023-04-24T02:06:54;6.03;;;4.55;;
52494;SDS011;38405;53.212;5.660;2023-04-24T02:09:19;10.10;;;5.20;;
52494;SDS011;38405;53.212;5.660;2023-04-24T02:11:45;7.10;;;6.28;;
52494;SDS011;38405;53.212;5.660;2023-04-24T02:14:11;6.20;;;5.60;;
52494;SDS011;38405;53.212;5.660;2023-04-24T02:16:37;6.25;;;5.63;;
52494;SDS011;38405;53.212;5.660;2023-04-24T02:19:02;6.68;;;5.80;;
52494;SDS011;38405;53.212;5.660;2023-04-24T02:21:28;4.85;;;4.35;;
52494;SDS011;38405;53.212;5.660;2023-04-24T02:23:55;4.57;;;3.97;;
52494;SDS011;38405;53.212;5.660;2023-04-24T02:26:21;4.18;;;3.03;;
52494;SDS011;38405;53.212;5.660;2023-04-24T02:28:47;5.78;;;2.60;;
52494;SDS011;38405;53.212;5.660;2023-04-24T02:31:13;3.70;;;2.33;;
52494;SDS011;38405;53.212;5.660;2023-04-24T02:33:39;4.15;;;2.25;;
52494;SDS011;38405;53.212;5.660;2023-04-24T02:36:04;5.90;;;2.60;;
52494;SDS011;38405;53.212;5.660;2023-04-24T02:38:30;2.55;;;1.95;;
52494;SDS011;38405;53.212;5.660;2023-04-24T02:40:56;2.88;;;1.88;;
52494;SDS011;38405;53.212;5.660;2023-04-24T02:43:21;7.35;;;1.58;;
52494;SDS011;38405;53.212;5.660;2023-04-24T02:45:47;3.60;;;1.98;;
52494;SDS011;38405;53.212;5.660;2023-04-24T02:48:12;3.55;;;1.95;;
52494;SDS011;38405;53.212;5.660;2023-04-24T02:50:38;3.63;;;2.30;;
52494;SDS011;38405;53.212;5.660;2023-04-24T02:53:04;3.38;;;2.65;;
52494;SDS011;38405;53.212;5.660;2023-04-24T02:55:29;10.20;;;3.00;;
52494;SDS011;38405;53.212;5.660;2023-04-24T02:57:55;3.25;;;2.55;;
52494;SDS011;38405;53.212;5.660;2023-04-24T03:00:21;4.50;;;3.72;;
52494;SDS011;38405;53.212;5.660;2023-04-24T03:02:46;3.95;;;3.00;;
52494;SDS011;38405;53.212;5.660;2023-04-24T03:05:12;4.65;;;3.35;;
52494;SDS011;38405;53.212;5.660;2023-04-24T03:07:38;6.25;;;3.72;;
52494;SDS011;38405;53.212;5.660;2023-04-24T03:10:04;4.75;;;4.03;;
52494;SDS011;38405;53.212;5.660;2023-04-24T03:12:31;7.28;;;4.40;;
52494;SDS011;38405;53.212;5.660;2023-04-24T03:14:57;4.90;;;4.28;;
52494;SDS011;38405;53.212;5.660;2023-04-24T03:17:23;7.70;;;5.25;;
52494;SDS011;38405;53.212;5.660;2023-04-24T03:19:49;6.60;;;5.20;;
52494;SDS011;38405;53.212;5.660;2023-04-24T03:22:15;6.75;;;5.30;;
52494;SDS011;38405;53.212;5.660;2023-04-24T03:24:40;5.88;;;4.22;;
52494;SDS011;38405;53.212;5.660;2023-04-24T03:27:06;6.43;;;4.13;;
52494;SDS011;38405;53.212;5.660;2023-04-24T03:29:32;4.95;;;3.42;;
52494;SDS011;38405;53.212;5.660;2023-04-24T03:31:57;3.42;;;3.13;;
52494;SDS011;38405;53.212;5.660;2023-04-24T03:34:23;5.43;;;2.70;;
52494;SDS011;38405;53.212;5.660;2023-04-24T03:36:49;3.63;;;1.77;;
52494;SDS011;38405;53.212;5.660;2023-04-24T03:39:15;1.40;;;1.27;;
52494;SDS011;38405;53.212;5.660;2023-04-24T03:41:40;1.48;;;1.05;;
52494;SDS011;38405;53.212;5.660;2023-04-24T03:44:06;3.88;;;1.50;;
52494;SDS011;38405;53.212;5.660;2023-04-24T03:46:32;3.55;;;1.80;;
52494;SDS011;38405;53.212;5.660;2023-04-24T03:48:57;3.53;;;2.30;;
52494;SDS011;38405;53.212;5.660;2023-04-24T03:51:23;3.95;;;3.40;;
52494;SDS011;38405;53.212;5.660;2023-04-24T03:53:49;7.65;;;3.72;;
52494;SDS011;38405;53.212;5.660;2023-04-24T03:56:14;6.20;;;4.15;;
52494;SDS011;38405;53.212;5.660;2023-04-24T03:58:40;5.55;;;3.80;;
52494;SDS011;38405;53.212;5.660;2023-04-24T04:01:06;5.53;;;3.60;;
52494;SDS011;38405;53.212;5.660;2023-04-24T04:03:32;4.20;;;3.67;;
52494;SDS011;38405;53.212;5.660;2023-04-24T04:05:58;3.53;;;3.22;;
52494;SDS011;38405;53.212;5.660;2023-04-24T04:08:24;6.50;;;2.42;;
52494;SDS011;38405;53.212;5.660;2023-04-24T04:10:50;1.60;;;1.50;;
52494;SDS011;38405;53.212;5.660;2023-04-24T04:13:15;2.88;;;1.10;;
52494;SDS011;38405;53.212;5.660;2023-04-24T04:15:41;2.10;;;0.60;;
52494;SDS011;38405;53.212;5.660;2023-04-24T04:18:07;1.60;;;0.70;;
52494;SDS011;38405;53.212;5.660;2023-04-24T04:20:33;0.55;;;0.55;;
52494;SDS011;38405;53.212;5.660;2023-04-24T04:22:59;0.65;;;0.60;;
52494;SDS011;38405;53.212;5.660;2023-04-24T04:25:24;2.45;;;0.90;;
52494;SDS011;38405;53.212;5.660;2023-04-24T04:27:50;2.80;;;1.08;;
52494;SDS011;38405;53.212;5.660;2023-04-24T04:30:17;4.22;;;1.63;;
52494;SDS011;38405;53.212;5.660;2023-04-24T04:32:43;3.40;;;2.00;;
52494;SDS011;38405;53.212;5.660;2023-04-24T04:35:09;4.25;;;2.45;;
52494;SDS011;38405;53.212;5.660;2023-04-24T04:37:35;7.78;;;3.10;;
52494;SDS011;38405;53.212;5.660;2023-04-24T04:40:01;6.82;;;3.25;;
52494;SDS011;38405;53.212;5.660;2023-04-24T04:42:31;5.80;;;4.50;;
52494;SDS011;38405;53.212;5.660;2023-04-24T04:44:59;8.75;;;5.32;;
52494;SDS011;38405;53.212;5.660;2023-04-24T04:47:25;8.73;;;5.90;;
52494;SDS011;38405;53.212;5.660;2023-04-24T04:49:52;9.63;;;5.43;;
52494;SDS011;38405;53.212;5.660;2023-04-24T04:52:17;8.07;;;5.00;;
52494;SDS011;38405;53.212;5.660;2023-04-24T04:54:43;7.93;;;4.15;;
52494;SDS011;38405;53.212;5.660;2023-04-24T04:57:09;9.73;;;4.25;;
52494;SDS011;38405;53.212;5.660;2023-04-24T04:59:35;6.75;;;3.80;;
52494;SDS011;38405;53.212;5.660;2023-04-24T05:02:02;7.68;;;4.60;;
52494;SDS011;38405;53.212;5.660;2023-04-24T05:04:27;7.90;;;5.40;;
52494;SDS011;38405;53.212;5.660;2023-04-24T05:06:53;7.50;;;5.20;;
52494;SDS011;38405;53.212;5.660;2023-04-24T05:09:19;5.57;;;3.92;;
52494;SDS011;38405;53.212;5.660;2023-04-24T05:11:44;4.15;;;3.33;;
52494;SDS011;38405;53.212;5.660;2023-04-24T05:14:10;4.18;;;2.65;;
52494;SDS011;38405;53.212;5.660;2023-04-24T05:16:37;2.65;;;2.00;;
52494;SDS011;38405;53.212;5.660;2023-04-24T05:19:03;3.20;;;1.80;;
52494;SDS011;38405;53.212;5.660;2023-04-24T05:21:29;3.70;;;1.92;;
52494;SDS011;38405;53.212;5.660;2023-04-24T05:23:56;2.60;;;1.73;;
52494;SDS011;38405;53.212;5.660;2023-04-24T05:26:22;2.65;;;1.77;;
52494;SDS011;38405;53.212;5.660;2023-04-24T05:28:48;1.85;;;1.45;;
52494;SDS011;38405;53.212;5.660;2023-04-24T05:31:14;1.88;;;1.60;;
52494;SDS011;38405;53.212;5.660;2023-04-24T05:33:40;4.15;;;1.60;;
52494;SDS011;38405;53.212;5.660;2023-04-24T05:36:06;4.20;;;1.80;;
52494;SDS011;38405;53.212;5.660;2023-04-24T05:38:32;1.92;;;1.70;;
52494;SDS011;38405;53.212;5.660;2023-04-24T05:40:57;3.38;;;1.48;;
52494;SDS011;38405;53.212;5.660;2023-04-24T05:43:23;2.13;;;1.13;;
52494;SDS011;38405;53.212;5.660;2023-04-24T05:45:49;1.45;;;1.20;;
52494;SDS011;38405;53.212;5.660;2023-04-24T05:48:14;2.15;;;1.20;;
52494;SDS011;38405;53.212;5.660;2023-04-24T05:50:40;2.67;;;1.23;;
52494;SDS011;38405;53.212;5.660;2023-04-24T05:53:06;2.28;;;1.20;;
52494;SDS011;38405;53.212;5.660;2023-04-24T05:55:32;1.85;;;1.00;;
52494;SDS011;38405;53.212;5.660;2023-04-24T05:57:58;2.38;;;1.45;;
52494;SDS011;38405;53.212;5.660;2023-04-24T06:00:24;2.10;;;1.27;;
52494;SDS011;38405;53.212;5.660;2023-04-24T06:02:50;4.18;;;2.20;;
52494;SDS011;38405;53.212;5.660;2023-04-24T06:05:17;6.93;;;3.60;;
52494;SDS011;38405;53.212;5.660;2023-04-24T06:07:44;9.05;;;5.70;;
52494;SDS011;38405;53.212;5.660;2023-04-24T06:10:10;12.02;;;6.15;;
52494;SDS011;38405;53.212;5.660;2023-04-24T06:12:35;12.57;;;7.47;;
52494;SDS011;38405;53.212;5.660;2023-04-24T06:15:01;13.98;;;8.30;;
52494;SDS011;38405;53.212;5.660;2023-04-24T06:17:27;16.30;;;9.68;;
52494;SDS011;38405;53.212;5.660;2023-04-24T06:19:53;16.80;;;8.38;;
52494;SDS011;38405;53.212;5.660;2023-04-24T06:22:18;19.55;;;9.38;;
52494;SDS011;38405;53.212;5.660;2023-04-24T06:24:44;18.00;;;10.63;;
52494;SDS011;38405;53.212;5.660;2023-04-24T06:27:10;18.30;;;11.00;;
52494;SDS011;38405;53.212;5.660;2023-04-24T06:29:36;20.63;;;13.38;;
52494;SDS011;38405;53.212;5.660;2023-04-24T06:32:01;19.10;;;12.85;;
52494;SDS011;38405;53.212;5.660;2023-04-24T06:34:27;32.40;;;12.60;;
52494;SDS011;38405;53.212;5.660;2023-04-24T06:36:53;23.88;;;13.07;;
52494;SDS011;38405;53.212;5.660;2023-04-24T06:39:20;19.52;;;10.95;;
52494;SDS011;38405;53.212;5.660;2023-04-24T06:41:45;23.85;;;11.38;;
52494;SDS011;38405;53.212;5.660;2023-04-24T06:44:11;12.90;;;8.77;;
52494;SDS011;38405;53.212;5.660;2023-04-24T06:46:36;17.40;;;9.88;;
52494;SDS011;38405;53.212;5.660;2023-04-24T06:49:02;20.27;;;11.90;;
52494;SDS011;38405;53.212;5.660;2023-04-24T06:51:28;17.00;;;10.95;;
52494;SDS011;38405;53.212;5.660;2023-04-24T06:53:54;22.15;;;12.07;;
52494;SDS011;38405;53.212;5.660;2023-04-24T06:56:21;19.23;;;12.55;;
52494;SDS011;38405;53.212;5.660;2023-04-24T06:58:47;20.48;;;11.10;;
52494;SDS011;38405;53.212;5.660;2023-04-24T07:01:13;32.20;;;12.75;;
52494;SDS011;38405;53.212;5.660;2023-04-24T07:03:39;19.48;;;11.90;;
52494;SDS011;38405;53.212;5.660;2023-04-24T07:06:05;17.08;;;10.93;;
52494;SDS011;38405;53.212;5.660;2023-04-24T07:08:31;19.02;;;10.15;;
52494;SDS011;38405;53.212;5.660;2023-04-24T07:10:58;21.20;;;10.90;;
52494;SDS011;38405;53.212;5.660;2023-04-24T07:13:24;15.95;;;10.02;;
52494;SDS011;38405;53.212;5.660;2023-04-24T07:15:50;12.73;;;8.50;;
52494;SDS011;38405;53.212;5.660;2023-04-24T07:18:17;16.83;;;9.30;;
52494;SDS011;38405;53.212;5.660;2023-04-24T07:20:43;13.70;;;8.15;;
52494;SDS011;38405;53.212;5.660;2023-04-24T07:23:09;15.60;;;6.80;;
52494;SDS011;38405;53.212;5.660;2023-04-24T07:25:35;11.05;;;6.90;;
52494;SDS011;38405;53.212;5.660;2023-04-24T07:28:01;13.52;;;6.18;;
52494;SDS011;38405;53.212;5.660;2023-04-24T07:30:27;11.80;;;6.50;;
52494;SDS011;38405;53.212;5.660;2023-04-24T07:32:54;11.55;;;5.68;;
52494;SDS011;38405;53.212;5.660;2023-04-24T07:35:20;11.70;;;6.05;;
52494;SDS011;38405;53.212;5.660;2023-04-24T07:37:46;10.40;;;5.35;;
52494;SDS011;38405;53.212;5.660;2023-04-24T07:40:12;15.27;;;5.97;;
52494;SDS011;38405;53.212;5.660;2023-04-24T07:42:38;9.88;;;5.60;;
52494;SDS011;38405;53.212;5.660;2023-04-24T07:45:04;8.77;;;5.22;;
52494;SDS011;38405;53.212;5.660;2023-04-24T07:47:30;10.60;;;5.82;;
52494;SDS011;38405;53.212;5.660;2023-04-24T07:49:57;11.70;;;5.68;;
52494;SDS011;38405;53.212;5.660;2023-04-24T07:52:23;16.25;;;7.38;;
52494;SDS011;38405;53.212;5.660;2023-04-24T07:54:49;12.65;;;6.57;;
52494;SDS011;38405;53.212;5.660;2023-04-24T07:57:15;8.40;;;5.40;;
52494;SDS011;38405;53.212;5.660;2023-04-24T07:59:41;11.68;;;6.43;;
52494;SDS011;38405;53.212;5.660;2023-04-24T08:02:07;10.65;;;4.95;;
52494;SDS011;38405;53.212;5.660;2023-04-24T08:04:33;15.07;;;5.20;;
52494;SDS011;38405;53.212;5.660;2023-04-24T08:06:58;8.25;;;4.95;;
52494;SDS011;38405;53.212;5.660;2023-04-24T08:09:24;11.75;;;4.97;;
52494;SDS011;38405;53.212;5.660;2023-04-24T08:11:50;9.27;;;4.55;;
52494;SDS011;38405;53.212;5.660;2023-04-24T08:14:15;12.70;;;5.93;;
52494;SDS011;38405;53.212;5.660;2023-04-24T08:16:41;11.43;;;5.07;;
52494;SDS011;38405;53.212;5.660;2023-04-24T08:19:07;11.55;;;4.75;;
52494;SDS011;38405;53.212;5.660;2023-04-24T08:21:33;13.02;;;4.75;;
52494;SDS011;38405;53.212;5.660;2023-04-24T08:23:59;12.38;;;4.65;;
52494;SDS011;38405;53.212;5.660;2023-04-24T08:26:25;12.77;;;4.43;;
52494;SDS011;38405;53.212;5.660;2023-04-24T08:28:51;10.82;;;4.05;;
52494;SDS011;38405;53.212;5.660;2023-04-24T08:31:16;9.25;;;3.90;;
52494;SDS011;38405;53.212;5.660;2023-04-24T08:33:42;4.38;;;3.05;;
52494;SDS011;38405;53.212;5.660;2023-04-24T08:36:12;9.52;;;3.03;;
52494;SDS011;38405;53.212;5.660;2023-04-24T08:38:38;10.90;;;3.83;;
52494;SDS011;38405;53.212;5.660;2023-04-24T08:41:03;15.68;;;3.47;;
52494;SDS011;38405;53.212;5.660;2023-04-24T08:43:30;10.50;;;3.55;;
52494;SDS011;38405;53.212;5.660;2023-04-24T08:45:59;10.07;;;3.50;;
52494;SDS011;38405;53.212;5.660;2023-04-24T08:48:25;7.10;;;3.20;;
52494;SDS011;38405;53.212;5.660;2023-04-24T08:50:52;9.05;;;3.47;;
52494;SDS011;38405;53.212;5.660;2023-04-24T08:53:19;7.47;;;3.30;;
52494;SDS011;38405;53.212;5.660;2023-04-24T08:55:46;12.45;;;3.25;;
52494;SDS011;38405;53.212;5.660;2023-04-24T08:58:13;11.35;;;3.67;;
52494;SDS011;38405;53.212;5.660;2023-04-24T09:00:43;12.55;;;2.92;;
52494;SDS011;38405;53.212;5.660;2023-04-24T09:03:12;15.80;;;3.78;;
52494;SDS011;38405;53.212;5.660;2023-04-24T09:05:42;9.30;;;2.97;;
52494;SDS011;38405;53.212;5.660;2023-04-24T09:08:11;8.30;;;3.20;;
52494;SDS011;38405;53.212;5.660;2023-04-24T09:10:39;7.32;;;3.38;;
52494;SDS011;38405;53.212;5.660;2023-04-24T09:13:05;9.88;;;3.13;;
52494;SDS011;38405;53.212;5.660;2023-04-24T09:15:34;8.43;;;2.90;;
52494;SDS011;38405;53.212;5.660;2023-04-24T09:18:00;8.10;;;2.92;;
52494;SDS011;38405;53.212;5.660;2023-04-24T09:20:26;9.55;;;3.08;;
52494;SDS011;38405;53.212;5.660;2023-04-24T09:22:55;9.23;;;2.67;;
52494;SDS011;38405;53.212;5.660;2023-04-24T09:25:22;7.93;;;2.70;;
52494;SDS011;38405;53.212;5.660;2023-04-24T09:27:53;8.18;;;2.90;;
52494;SDS011;38405;53.212;5.660;2023-04-24T09:30:22;10.05;;;2.72;;
52494;SDS011;38405;53.212;5.660;2023-04-24T09:32:48;10.88;;;2.70;;
52494;SDS011;38405;53.212;5.660;2023-04-24T09:35:14;10.35;;;2.55;;
52494;SDS011;38405;53.212;5.660;2023-04-24T09:37:45;8.35;;;2.45;;
52494;SDS011;38405;53.212;5.660;2023-04-24T09:40:18;8.13;;;2.50;;
52494;SDS011;38405;53.212;5.660;2023-04-24T09:42:46;8.68;;;2.35;;
52494;SDS011;38405;53.212;5.660;2023-04-24T09:45:17;10.23;;;2.67;;
52494;SDS011;38405;53.212;5.660;2023-04-24T09:47:42;16.38;;;3.33;;
52494;SDS011;38405;53.212;5.660;2023-04-24T09:50:09;7.22;;;2.17;;
52494;SDS011;38405;53.212;5.660;2023-04-24T09:52:37;6.47;;;2.55;;
52494;SDS011;38405;53.212;5.660;2023-04-24T09:55:16;11.02;;;2.50;;
52494;SDS011;38405;53.212;5.660;2023-04-24T09:57:47;7.80;;;2.05;;
52494;SDS011;38405;53.212;5.660;2023-04-24T10:00:24;9.43;;;1.95;;
52494;SDS011;38405;53.212;5.660;2023-04-24T10:03:01;12.80;;;2.13;;
52494;SDS011;38405;53.212;5.660;2023-04-24T10:07:56;5.93;;;1.83;;
52494;SDS011;38405;53.212;5.660;2023-04-24T10:10:22;6.90;;;2.15;;
52494;SDS011;38405;53.212;5.660;2023-04-24T10:12:48;8.57;;;2.35;;
52494;SDS011;38405;53.212;5.660;2023-04-24T10:15:16;8.50;;;2.30;;
52494;SDS011;38405;53.212;5.660;2023-04-24T10:17:46;7.68;;;1.98;;
52494;SDS011;38405;53.212;5.660;2023-04-24T10:20:22;7.13;;;2.60;;
52494;SDS011;38405;53.212;5.660;2023-04-24T10:22:49;9.55;;;2.67;;
52494;SDS011;38405;53.212;5.660;2023-04-24T10:25:29;7.38;;;2.40;;
52494;SDS011;38405;53.212;5.660;2023-04-24T10:27:56;16.33;;;2.53;;
52494;SDS011;38405;53.212;5.660;2023-04-24T10:30:25;6.45;;;2.17;;
52494;SDS011;38405;53.212;5.660;2023-04-24T10:33:01;5.40;;;1.77;;
52494;SDS011;38405;53.212;5.660;2023-04-24T10:35:31;10.27;;;2.03;;
52494;SDS011;38405;53.212;5.660;2023-04-24T10:38:00;11.98;;;2.40;;
52494;SDS011;38405;53.212;5.660;2023-04-24T10:40:32;9.38;;;2.00;;
52494;SDS011;38405;53.212;5.660;2023-04-24T10:43:02;14.10;;;2.03;;
52494;SDS011;38405;53.212;5.660;2023-04-24T10:45:31;5.78;;;2.20;;
52494;SDS011;38405;53.212;5.660;2023-04-24T10:48:01;10.43;;;2.10;;
52494;SDS011;38405;53.212;5.660;2023-04-24T10:50:29;7.13;;;1.75;;
52494;SDS011;38405;53.212;5.660;2023-04-24T10:53:07;5.22;;;2.03;;
52494;SDS011;38405;53.212;5.660;2023-04-24T10:55:44;14.75;;;1.92;;
52494;SDS011;38405;53.212;5.660;2023-04-24T10:58:11;6.65;;;1.55;;
52494;SDS011;38405;53.212;5.660;2023-04-24T11:00:38;7.72;;;2.17;;
52494;SDS011;38405;53.212;5.660;2023-04-24T11:03:22;6.40;;;2.05;;
52494;SDS011;38405;53.212;5.660;2023-04-24T11:06:05;7.40;;;1.40;;
52494;SDS011;38405;53.212;5.660;2023-04-24T11:16:20;3.85;;;1.05;;
52494;SDS011;38405;53.212;5.660;2023-04-24T11:19:00;3.63;;;1.15;;
52494;SDS011;38405;53.212;5.660;2023-04-24T11:21:31;8.70;;;1.60;;
52494;SDS011;38405;53.212;5.660;2023-04-24T11:27:21;8.13;;;1.40;;
52494;SDS011;38405;53.212;5.660;2023-04-24T11:32:35;7.40;;;1.38;;
52494;SDS011;38405;53.212;5.660;2023-04-24T11:35:06;7.15;;;1.23;;
52494;SDS011;38405;53.212;5.660;2023-04-24T11:37:39;7.22;;;1.45;;
52494;SDS011;38405;53.212;5.660;2023-04-24T11:40:07;6.38;;;1.63;;
52494;SDS011;38405;53.212;5.660;2023-04-24T11:42:44;7.55;;;1.88;;
52494;SDS011;38405;53.212;5.660;2023-04-24T11:45:15;5.88;;;1.20;;
52494;SDS011;38405;53.212;5.660;2023-04-24T11:47:43;8.13;;;1.88;;
52494;SDS011;38405;53.212;5.660;2023-04-24T11:50:20;4.63;;;1.08;;
52494;SDS011;38405;53.212;5.660;2023-04-24T11:52:48;4.13;;;1.13;;
52494;SDS011;38405;53.212;5.660;2023-04-24T11:57:47;8.75;;;1.30;;
52494;SDS011;38405;53.212;5.660;2023-04-24T12:02:41;4.30;;;1.15;;
52494;SDS011;38405;53.212;5.660;2023-04-24T12:05:06;4.40;;;1.45;;
52494;SDS011;38405;53.212;5.660;2023-04-24T12:07:36;3.95;;;0.93;;
52494;SDS011;38405;53.212;5.660;2023-04-24T12:10:07;6.68;;;1.17;;
52494;SDS011;38405;53.212;5.660;2023-04-24T12:12:34;4.47;;;1.38;;
52494;SDS011;38405;53.212;5.660;2023-04-24T12:15:00;9.02;;;1.20;;
52494;SDS011;38405;53.212;5.660;2023-04-24T12:17:31;8.98;;;1.55;;
52494;SDS011;38405;53.212;5.660;2023-04-24T12:20:05;5.32;;;1.33;;
52494;SDS011;38405;53.212;5.660;2023-04-24T12:22:52;5.13;;;1.10;;
52494;SDS011;38405;53.212;5.660;2023-04-24T12:25:20;5.95;;;1.38;;
52494;SDS011;38405;53.212;5.660;2023-04-24T12:27:52;4.28;;;1.00;;
52494;SDS011;38405;53.212;5.660;2023-04-24T12:30:20;6.40;;;1.23;;
52494;SDS011;38405;53.212;5.660;2023-04-24T12:32:47;7.10;;;1.63;;
52494;SDS011;38405;53.212;5.660;2023-04-24T12:35:24;3.55;;;0.88;;
52494;SDS011;38405;53.212;5.660;2023-04-24T12:37:50;2.25;;;0.88;;
52494;SDS011;38405;53.212;5.660;2023-04-24T12:40:17;4.90;;;1.10;;
52494;SDS011;38405;53.212;5.660;2023-04-24T12:42:52;6.43;;;1.40;;
52494;SDS011;38405;53.212;5.660;2023-04-24T12:45:18;3.75;;;1.25;;
52494;SDS011;38405;53.212;5.660;2023-04-24T12:47:45;5.15;;;1.23;;
52494;SDS011;38405;53.212;5.660;2023-04-24T12:50:14;7.30;;;1.90;;
52494;SDS011;38405;53.212;5.660;2023-04-24T12:52:41;4.93;;;1.58;;
52494;SDS011;38405;53.212;5.660;2023-04-24T12:55:07;11.23;;;2.60;;
52494;SDS011;38405;53.212;5.660;2023-04-24T12:57:34;8.40;;;1.98;;
52494;SDS011;38405;53.212;5.660;2023-04-24T13:00:01;6.95;;;1.95;;
52494;SDS011;38405;53.212;5.660;2023-04-24T13:02:28;7.50;;;2.15;;
52494;SDS011;38405;53.212;5.660;2023-04-24T13:04:58;7.50;;;1.85;;
52494;SDS011;38405;53.212;5.660;2023-04-24T13:07:24;11.05;;;2.75;;
52494;SDS011;38405;53.212;5.660;2023-04-24T13:09:50;7.40;;;2.22;;
52494;SDS011;38405;53.212;5.660;2023-04-24T13:12:17;9.20;;;2.10;;
52494;SDS011;38405;53.212;5.660;2023-04-24T13:14:43;14.82;;;2.30;;
52494;SDS011;38405;53.212;5.660;2023-04-24T13:17:08;9.27;;;2.40;;
52494;SDS011;38405;53.212;5.660;2023-04-24T13:19:35;9.60;;;2.15;;
52494;SDS011;38405;53.212;5.660;2023-04-24T13:22:02;7.18;;;2.13;;
52494;SDS011;38405;53.212;5.660;2023-04-24T13:24:28;10.68;;;2.00;;
52494;SDS011;38405;53.212;5.660;2023-04-24T13:26:54;4.25;;;1.38;;
52494;SDS011;38405;53.212;5.660;2023-04-24T13:29:21;5.10;;;1.40;;
52494;SDS011;38405;53.212;5.660;2023-04-24T13:31:49;5.65;;;1.35;;
52494;SDS011;38405;53.212;5.660;2023-04-24T13:34:15;10.23;;;2.15;;
52494;SDS011;38405;53.212;5.660;2023-04-24T13:36:41;8.52;;;2.13;;
52494;SDS011;38405;53.212;5.660;2023-04-24T13:39:07;12.30;;;2.92;;
52494;SDS011;38405;53.212;5.660;2023-04-24T13:41:33;10.05;;;2.22;;
52494;SDS011;38405;53.212;5.660;2023-04-24T13:43:59;8.90;;;2.10;;
52494;SDS011;38405;53.212;5.660;2023-04-24T13:46:25;8.52;;;2.40;;
52494;SDS011;38405;53.212;5.660;2023-04-24T13:48:50;6.47;;;1.77;;
52494;SDS011;38405;53.212;5.660;2023-04-24T13:51:17;11.00;;;2.28;;
52494;SDS011;38405;53.212;5.660;2023-04-24T13:53:43;12.43;;;2.47;;
52494;SDS011;38405;53.212;5.660;2023-04-24T13:56:08;12.48;;;3.08;;
52494;SDS011;38405;53.212;5.660;2023-04-24T13:58:39;14.00;;;3.13;;
52494;SDS011;38405;53.212;5.660;2023-04-24T14:01:05;12.60;;;3.35;;
52494;SDS011;38405;53.212;5.660;2023-04-24T14:03:32;11.43;;;3.00;;
52494;SDS011;38405;53.212;5.660;2023-04-24T14:05:58;8.00;;;2.47;;
52494;SDS011;38405;53.212;5.660;2023-04-24T14:08:24;9.40;;;2.70;;
52494;SDS011;38405;53.212;5.660;2023-04-24T14:10:50;13.30;;;2.88;;
52494;SDS011;38405;53.212;5.660;2023-04-24T14:13:16;10.68;;;2.60;;
52494;SDS011;38405;53.212;5.660;2023-04-24T14:15:42;8.43;;;2.83;;
52494;SDS011;38405;53.212;5.660;2023-04-24T14:18:08;15.85;;;3.85;;
52494;SDS011;38405;53.212;5.660;2023-04-24T14:20:33;11.02;;;3.08;;
52494;SDS011;38405;53.212;5.660;2023-04-24T14:22:59;17.25;;;3.50;;
52494;SDS011;38405;53.212;5.660;2023-04-24T14:25:25;12.93;;;3.33;;
52494;SDS011;38405;53.212;5.660;2023-04-24T14:27:51;17.88;;;3.50;;
52494;SDS011;38405;53.212;5.660;2023-04-24T14:30:17;8.73;;;3.05;;
52494;SDS011;38405;53.212;5.660;2023-04-24T14:32:46;10.95;;;2.88;;
52494;SDS011;38405;53.212;5.660;2023-04-24T14:35:12;14.02;;;3.08;;
52494;SDS011;38405;53.212;5.660;2023-04-24T14:37:38;9.60;;;2.92;;
52494;SDS011;38405;53.212;5.660;2023-04-24T14:40:06;8.38;;;2.67;;
52494;SDS011;38405;53.212;5.660;2023-04-24T14:42:33;14.73;;;4.30;;
52494;SDS011;38405;53.212;5.660;2023-04-24T14:44:59;12.45;;;3.67;;
52494;SDS011;38405;53.212;5.660;2023-04-24T14:47:24;13.27;;;3.47;;
52494;SDS011;38405;53.212;5.660;2023-04-24T14:49:50;12.27;;;3.33;;
52494;SDS011;38405;53.212;5.660;2023-04-24T14:52:16;14.70;;;3.45;;
52494;SDS011;38405;53.212;5.660;2023-04-24T14:54:42;16.30;;;3.47;;
52494;SDS011;38405;53.212;5.660;2023-04-24T14:57:08;13.93;;;3.95;;
52494;SDS011;38405;53.212;5.660;2023-04-24T14:59:34;13.80;;;3.58;;
52494;SDS011;38405;53.212;5.660;2023-04-24T15:02:00;14.32;;;3.55;;
52494;SDS011;38405;53.212;5.660;2023-04-24T15:04:28;15.88;;;4.20;;